Barranquilla, Colombia

8:29 PM COT en Agosto 23, 2016 (GMT -0500)
Ernesto Cortissoz | | Change Station

Alt 98 ft 10.88 °N, 74.78 °W | Updated 29 minutes ago

Scattered Clouds
Nubes dispersas
82 ° F
Sensación térmica 91 ° F
N
10
Viento Variable Viento desde NNO

Hoy
Alta -- | Baja -- ° F
--% Posibilidad de precipitaciones
Ayer
Alta -- | Baja -- ° F
Precip. -- pul
Presión 29.85 pul
Visibilidad 6.2 Millas
Nubes Nubes dispersas 1500 ft
Índice de calor 91 ° F
Punto de rocío 77 ° F
Humedad 84%
Precipitaciones 0.00 pul
Espesor de la nieve No disponible.
5:49 AM 6:13 PM
Gibosa menguante, 62% visible
METAR SKBQ 240100Z 34009KT 9999 SCT015 28/25 A2985
Presión 29.85 pul
Visibilidad 6.2 Millas
Nubes Nubes dispersas 1500 ft
Índice de calor 91 ° F
Punto de rocío 77 ° F
Humedad 84%
Precipitaciones 0.00 pul
Espesor de la nieve No disponible.
5:49 AM 6:13 PM
Gibosa menguante, 62% visible
METAR SKBQ 240100Z 34009KT 9999 SCT015 28/25 A2985

10-Day Weather Forecast

No radar image for this location.
×

Almanac

Astronomía

Aug. 23, 2016 Salida Puesta
Hora real
Crepúsculo civil
Crepúsculo náutico
Crepúsculo astronómico
Luna
Horas de luz
Horas de luz
Tomorrow will be .
, % of the Moon is Illuminated

Extremos de hoy

Máximos del país Bajas del país

Community

WunderPhotos

Upload Photos

1,934,517 ¡fotos cargadas!

WunderBlog® & News

Nearby

Calidad del aire

  Calidad del aire Índice AQ Contaminante
Not available.

Grosos de nieve

Estación Profundido Altura

Actividad de terremotos

Ciudad Distance Mag. Tiempo y dato
Magnitud mínima muestra es 2,5.

Temperaturas de aguas costeras

Lugar Temperatura

Stations

Estaciones meteorológicas cercanas

Ubicación de la estación Temp. Vientos helados Punto de rocío Humedad Viento Precip. Alt Actualizado Tipo